Time;durP1;ratioP1;P1;durP2;ratioP2;P2;SDS_P1;SDS_P2;PMS_P1;PMS_P2;Temp;Humidity;BMP_temperature;BMP_pressure;BME280_temperature;BME280_humidity;BME280_pressure;Samples;Min_cycle;Max_cycle;Signal;HPM_P1;HPM_P2
2021/06/06 00:01:37;;;;;;;43.40;39.00;;;20.80;99.90;;;;;;5876906;23;20898;-67
2021/06/06 00:04:03;;;;;;;45.57;40.67;;;20.70;99.90;;;;;;5867715;23;20787;-68
2021/06/06 00:06:32;;;;;;;45.40;40.70;;;20.70;99.90;;;;;;5879529;23;20903;-67
2021/06/06 00:09:00;;;;;;;42.47;38.07;;;20.70;99.90;;;;;;5841793;23;20240;-67
2021/06/06 00:11:29;;;;;;;43.17;38.50;;;20.80;99.90;;;;;;5839437;23;20576;-67
2021/06/06 00:13:57;;;;;;;42.03;37.77;;;21.00;99.90;;;;;;5862585;23;20967;-67
2021/06/06 00:16:34;;;;;;;44.97;40.27;;;21.00;99.90;;;;;;5856313;23;21445;-66
2021/06/06 00:19:00;;;;;;;39.57;35.43;;;21.00;99.90;;;;;;5834851;23;20816;-67
2021/06/06 00:21:27;;;;;;;39.50;35.30;;;21.00;99.90;;;;;;5863823;23;20429;-66
2021/06/06 00:23:55;;;;;;;38.37;34.37;;;21.00;99.90;;;;;;5835626;23;21347;-67
2021/06/06 00:26:21;;;;;;;41.47;37.37;;;21.00;99.90;;;;;;5828511;23;20751;-67
2021/06/06 00:28:47;;;;;;;38.57;34.77;;;21.20;99.90;;;;;;5838319;23;20422;-65
2021/06/06 00:31:13;;;;;;;39.37;35.37;;;21.10;99.90;;;;;;5826126;23;20192;-64
2021/06/06 00:33:39;;;;;;;39.20;35.07;;;21.20;99.90;;;;;;5808231;23;20949;-65
2021/06/06 00:36:06;;;;;;;36.17;32.53;;;21.20;99.90;;;;;;5803643;23;20750;-66
2021/06/06 00:38:32;;;;;;;34.87;31.27;;;21.20;99.90;;;;;;5869800;23;20679;-65
2021/06/06 00:40:59;;;;;;;36.40;32.50;;;21.10;99.90;;;;;;5828010;23;20843;-65
2021/06/06 00:43:27;;;;;;;35.33;31.53;;;21.00;99.90;;;;;;5826652;23;20407;-64
2021/06/06 00:45:52;;;;;;;34.53;30.93;;;20.70;99.90;;;;;;5830446;23;21353;-65
2021/06/06 00:48:18;;;;;;;32.43;29.13;;;20.50;99.90;;;;;;5835909;23;20432;-65
2021/06/06 00:50:48;;;;;;;32.27;29.00;;;20.10;99.90;;;;;;5868120;23;20580;-65
2021/06/06 00:53:22;;;;;;;33.83;30.33;;;20.00;99.90;;;;;;5836409;23;20435;-64
2021/06/06 00:55:50;;;;;;;33.87;30.37;;;19.80;99.90;;;;;;5834876;23;20396;-65
2021/06/06 00:58:15;;;;;;;35.07;31.53;;;19.90;99.90;;;;;;5826505;23;20392;-65
2021/06/06 01:00:46;;;;;;;36.30;31.87;;;20.10;99.90;;;;;;5833054;23;20691;-65
2021/06/06 01:03:12;;;;;;;34.93;31.27;;;20.20;99.90;;;;;;5866962;23;20150;-65
2021/06/06 01:05:42;;;;;;;34.80;31.27;;;20.30;99.90;;;;;;5816588;23;20384;-65
2021/06/06 01:08:12;;;;;;;35.67;31.97;;;20.00;99.90;;;;;;5843007;23;20384;-65
2021/06/06 01:10:37;;;;;;;37.67;33.70;;;20.10;99.90;;;;;;5864270;23;20899;-65
2021/06/06 01:13:09;;;;;;;38.93;34.83;;;20.40;99.90;;;;;;5880632;23;21279;-65
2021/06/06 01:15:37;;;;;;;38.47;32.87;;;20.20;99.90;;;;;;5846978;23;20532;-65
2021/06/06 01:18:23;;;;;;;39.67;35.57;;;20.10;99.90;;;;;;5876033;23;20384;-65
2021/06/06 01:21:20;;;;;;;39.73;35.27;;;19.90;99.90;;;;;;5904566;23;21534;-65
2021/06/06 01:24:15;;;;;;;42.53;38.03;;;19.60;99.90;;;;;;5859652;23;20807;-66
2021/06/06 01:26:50;;;;;;;40.77;36.30;;;19.70;99.90;;;;;;5863131;23;20838;-65
2021/06/06 01:29:34;;;;;;;41.83;36.53;;;19.90;99.90;;;;;;5864956;23;21326;-67
2021/06/06 01:32:22;;;;;;;43.23;38.27;;;20.00;99.90;;;;;;5895087;23;20431;-67
2021/06/06 01:35:00;;;;;;;44.43;39.47;;;19.70;99.90;;;;;;5874956;23;20831;-67
2021/06/06 01:37:28;;;;;;;45.47;39.03;;;19.70;99.90;;;;;;5912033;23;20800;-67
2021/06/06 01:40:08;;;;;;;46.50;41.07;;;20.00;99.90;;;;;;5906178;23;20380;-67
2021/06/06 01:42:38;;;;;;;45.00;40.13;;;20.10;99.90;;;;;;5891085;23;20399;-67
2021/06/06 01:45:13;;;;;;;45.20;39.77;;;20.20;99.90;;;;;;5860656;23;20874;-67
2021/06/06 01:47:39;;;;;;;46.77;41.80;;;20.40;99.90;;;;;;5857769;23;20829;-68
2021/06/06 01:50:14;;;;;;;48.77;43.50;;;20.20;99.90;;;;;;5866646;23;20820;-67
2021/06/06 01:52:42;;;;;;;46.70;41.50;;;20.20;99.90;;;;;;5895404;23;20433;-67
2021/06/06 01:55:11;;;;;;;50.00;44.10;;;20.20;99.90;;;;;;5902153;23;20467;-65
2021/06/06 01:57:40;;;;;;;54.90;43.40;;;20.00;99.90;;;;;;5873966;23;20772;-69
2021/06/06 02:00:15;;;;;;;53.40;44.67;;;19.90;99.90;;;;;;5897217;23;20459;-66
2021/06/06 02:02:42;;;;;;;49.90;44.00;;;19.70;99.90;;;;;;5870748;23;20391;-67
2021/06/06 02:05:14;;;;;;;51.67;44.53;;;19.70;99.90;;;;;;5919978;23;21248;-69
2021/06/06 02:07:42;;;;;;;56.37;44.93;;;19.70;99.90;;;;;;5867191;23;20770;-67
2021/06/06 02:10:08;;;;;;;52.77;44.40;;;19.50;99.90;;;;;;5873258;23;20821;-67
2021/06/06 02:12:37;;;;;;;49.60;43.00;;;19.30;99.90;;;;;;5905837;23;20802;-66
2021/06/06 02:15:10;;;;;;;55.23;44.80;;;19.60;99.90;;;;;;5872320;23;20161;-67
2021/06/06 02:17:35;;;;;;;56.33;47.60;;;19.50;99.90;;;;;;5869812;23;20837;-67
2021/06/06 02:20:05;;;;;;;55.00;45.73;;;19.20;99.90;;;;;;5870498;23;20392;-67
2021/06/06 02:22:32;;;;;;;53.13;43.13;;;19.10;99.90;;;;;;5905526;23;20156;-66
2021/06/06 02:25:00;;;;;;;57.57;46.50;;;19.00;99.90;;;;;;5874155;23;20776;-67
2021/06/06 02:27:59;;;;;;;56.40;45.10;;;19.00;99.90;;;;;;5895563;23;20392;-66
2021/06/06 02:30:35;;;;;;;54.60;45.07;;;19.00;99.90;;;;;;5865239;23;20811;-67
2021/06/06 02:33:13;;;;;;;57.53;46.00;;;19.00;99.90;;;;;;5911626;23;20985;-67
2021/06/06 02:35:46;;;;;;;58.00;46.53;;;18.90;99.90;;;;;;5895862;23;20806;-67
2021/06/06 02:38:19;;;;;;;59.20;46.10;;;18.80;99.90;;;;;;5865644;23;20387;-67
2021/06/06 02:40:49;;;;;;;56.57;47.77;;;18.80;99.90;;;;;;5872660;23;21185;-66
2021/06/06 02:43:20;;;;;;;59.37;49.87;;;18.80;99.90;;;;;;5874051;23;20799;-66
2021/06/06 02:45:47;;;;;;;61.10;47.60;;;18.80;99.90;;;;;;5905959;23;20894;-66
2021/06/06 02:48:22;;;;;;;60.60;47.00;;;18.60;99.90;;;;;;5889016;23;20412;-66
2021/06/06 02:50:48;;;;;;;61.57;47.47;;;18.60;99.90;;;;;;5907691;23;21155;-66
2021/06/06 02:53:14;;;;;;;62.67;48.93;;;18.60;99.90;;;;;;5870424;23;20411;-66
2021/06/06 02:55:44;;;;;;;59.43;48.00;;;18.50;99.90;;;;;;5869401;23;20396;-66
2021/06/06 02:58:21;;;;;;;63.50;48.60;;;18.50;99.90;;;;;;5909583;23;20525;-67
2021/06/06 03:00:54;;;;;;;62.90;50.13;;;18.50;99.90;;;;;;5864972;23;20383;-67
2021/06/06 03:03:32;;;;;;;60.30;47.00;;;18.60;99.90;;;;;;5875474;23;20847;-66
2021/06/06 03:06:01;;;;;;;63.10;49.50;;;18.60;99.90;;;;;;5870217;23;20754;-66
2021/06/06 03:08:27;;;;;;;68.23;50.97;;;18.70;99.90;;;;;;5909233;23;20384;-67
2021/06/06 03:10:55;;;;;;;71.53;53.17;;;18.70;99.90;;;;;;5853582;23;20427;-66
2021/06/06 03:13:39;;;;;;;70.27;52.20;;;18.70;99.90;;;;;;5854714;23;20678;-66
2021/06/06 03:16:05;;;;;;;71.43;54.33;;;18.70;99.90;;;;;;5859661;23;20966;-67
2021/06/06 03:18:34;;;;;;;73.07;54.80;;;18.60;99.90;;;;;;5863005;23;20768;-67
2021/06/06 03:21:10;;;;;;;69.30;52.23;;;18.50;99.90;;;;;;5863462;23;20446;-66
2021/06/06 03:23:37;;;;;;;73.60;53.50;;;18.10;99.90;;;;;;5859384;23;20384;-66
2021/06/06 03:26:07;;;;;;;72.30;54.17;;;18.00;99.90;;;;;;5907062;23;20806;-67
2021/06/06 03:28:35;;;;;;;68.27;51.63;;;18.10;99.90;;;;;;5908193;23;20450;-67
2021/06/06 03:31:05;;;;;;;76.03;53.80;;;17.90;99.90;;;;;;5904950;23;21298;-66
2021/06/06 03:33:35;;;;;;;70.60;52.73;;;17.80;99.90;;;;;;5890982;23;20713;-67
2021/06/06 03:36:01;;;;;;;73.80;54.77;;;17.60;99.90;;;;;;5848629;23;21226;-66
2021/06/06 03:38:26;;;;;;;76.57;56.87;;;17.60;99.90;;;;;;5886546;23;20453;-67
2021/06/06 03:40:52;;;;;;;75.90;56.57;;;17.50;99.90;;;;;;5862433;23;20548;-66
2021/06/06 03:43:19;;;;;;;77.10;54.83;;;17.60;99.90;;;;;;5863563;23;20266;-66
2021/06/06 03:45:46;;;;;;;84.10;57.50;;;17.80;99.90;;;;;;5894305;23;20175;-67
2021/06/06 03:48:12;;;;;;;83.67;58.60;;;17.90;99.90;;;;;;5870912;23;20808;-66
2021/06/06 03:50:42;;;;;;;81.40;55.70;;;17.70;99.90;;;;;;5859007;23;20407;-69
2021/06/06 03:53:09;;;;;;;76.03;54.57;;;17.80;99.90;;;;;;5865129;23;20463;-67
2021/06/06 03:55:35;;;;;;;77.67;57.60;;;17.90;99.90;;;;;;5895296;23;20829;-66
2021/06/06 03:58:00;;;;;;;82.20;56.60;;;18.10;99.90;;;;;;5892634;23;21296;-67
2021/06/06 04:00:37;;;;;;;82.17;57.20;;;18.00;99.90;;;;;;5897228;23;20391;-66
2021/06/06 04:03:03;;;;;;;84.60;57.60;;;18.00;99.90;;;;;;5856127;23;20493;-66
2021/06/06 04:05:29;;;;;;;84.80;59.83;;;17.80;99.90;;;;;;5901173;23;20376;-67
2021/06/06 04:07:55;;;;;;;83.70;55.67;;;17.90;99.90;;;;;;5865313;23;20767;-67
2021/06/06 04:10:22;;;;;;;78.50;55.47;;;18.10;99.90;;;;;;5896094;23;20584;-66
2021/06/06 04:12:47;;;;;;;90.90;59.90;;;18.10;99.90;;;;;;5860171;23;20722;-67
2021/06/06 04:15:14;;;;;;;84.87;56.50;;;18.20;99.90;;;;;;5847404;23;20392;-67
2021/06/06 04:17:39;;;;;;;76.50;54.53;;;18.20;99.90;;;;;;5834287;23;20552;-68
2021/06/06 04:20:08;;;;;;;78.80;54.60;;;18.20;99.90;;;;;;5845706;23;20950;-67
2021/06/06 04:22:33;;;;;;;80.90;54.43;;;18.30;99.90;;;;;;5906062;23;20751;-67
2021/06/06 04:24:59;;;;;;;71.77;52.87;;;18.40;99.90;;;;;;5900295;23;20664;-67
2021/06/06 04:27:25;;;;;;;81.53;53.90;;;18.40;99.90;;;;;;5865900;23;20794;-67
2021/06/06 04:29:51;;;;;;;74.20;51.47;;;18.70;99.90;;;;;;5836940;23;20171;-69
2021/06/06 04:32:17;;;;;;;72.63;49.83;;;18.50;99.90;;;;;;5855131;23;20195;-67
2021/06/06 04:34:45;;;;;;;73.80;51.53;;;18.30;99.90;;;;;;5861342;23;20466;-66
2021/06/06 04:37:13;;;;;;;75.33;52.70;;;18.20;99.90;;;;;;5854167;23;20388;-67
2021/06/06 04:39:40;;;;;;;75.80;52.63;;;18.30;99.90;;;;;;5855504;23;20471;-67
2021/06/06 04:42:09;;;;;;;82.47;55.10;;;18.10;99.90;;;;;;5856435;23;20828;-68
2021/06/06 04:44:38;;;;;;;74.87;52.27;;;18.10;99.90;;;;;;5850980;23;20480;-67
2021/06/06 04:47:09;;;;;;;69.40;49.97;;;18.40;99.90;;;;;;5879490;23;20443;-67
2021/06/06 04:49:36;;;;;;;76.13;51.90;;;18.70;99.90;;;;;;5849769;23;20927;-67
2021/06/06 04:52:02;;;;;;;70.33;50.80;;;18.40;99.90;;;;;;5851745;23;20423;-67
2021/06/06 04:54:28;;;;;;;65.37;48.90;;;18.30;99.90;;;;;;5897746;23;20390;-67
2021/06/06 04:56:54;;;;;;;71.83;50.63;;;18.20;99.90;;;;;;5898004;23;20431;-67
2021/06/06 04:59:20;;;;;;;69.10;47.93;;;18.40;99.90;;;;;;5894672;23;20240;-67
2021/06/06 05:01:45;;;;;;;58.17;45.33;;;18.10;99.90;;;;;;5840370;23;20435;-67
2021/06/06 05:04:11;;;;;;;64.20;47.17;;;18.00;99.90;;;;;;5801699;23;20164;-66
2021/06/06 05:06:38;;;;;;;65.37;45.73;;;18.10;99.90;;;;;;5795385;23;20546;-68
2021/06/06 05:09:04;;;;;;;59.50;44.53;;;18.10;99.90;;;;;;5791705;23;20634;-66
2021/06/06 05:11:30;;;;;;;54.10;42.60;;;17.80;99.90;;;;;;5873931;23;20873;-68
2021/06/06 05:13:56;;;;;;;63.20;45.83;;;17.80;99.90;;;;;;5850840;23;21071;-66
2021/06/06 05:16:22;;;;;;;57.37;43.07;;;17.80;99.90;;;;;;5848067;23;20955;-66
2021/06/06 05:18:48;;;;;;;52.97;39.30;;;17.90;99.90;;;;;;5832716;23;20830;-66
2021/06/06 05:21:13;;;;;;;50.23;36.30;;;17.70;99.90;;;;;;5838626;23;20794;-67
2021/06/06 05:23:39;;;;;;;54.10;41.03;;;17.50;99.90;;;;;;5837831;23;20957;-66
2021/06/06 05:26:05;;;;;;;46.60;37.47;;;17.60;99.90;;;;;;5847873;23;20183;-67
2021/06/06 05:28:35;;;;;;;48.50;37.90;;;17.80;99.90;;;;;;5864191;23;20211;-67
2021/06/06 05:31:01;;;;;;;51.03;39.13;;;18.10;99.90;;;;;;5898443;23;21098;-67
2021/06/06 05:33:27;;;;;;;54.07;43.27;;;18.20;99.90;;;;;;5873529;23;20415;-66
2021/06/06 05:35:53;;;;;;;52.13;39.80;;;18.30;99.90;;;;;;5874703;23;20396;-66
2021/06/06 05:38:22;;;;;;;56.00;41.03;;;18.00;99.90;;;;;;5863745;23;20388;-66
2021/06/06 05:40:48;;;;;;;58.13;40.93;;;18.10;99.90;;;;;;5866775;23;20399;-67
2021/06/06 05:43:17;;;;;;;53.50;40.50;;;18.30;99.90;;;;;;5898871;23;20399;-67
2021/06/06 05:45:43;;;;;;;51.50;39.93;;;18.20;99.90;;;;;;5892756;23;20792;-66
2021/06/06 05:48:09;;;;;;;53.80;41.77;;;18.10;99.90;;;;;;5860365;23;20933;-67
2021/06/06 05:50:39;;;;;;;53.17;39.83;;;18.30;99.90;;;;;;5870027;23;21150;-67
2021/06/06 05:53:05;;;;;;;54.03;39.67;;;18.60;99.90;;;;;;5894800;23;20519;-67
2021/06/06 05:55:31;;;;;;;44.97;36.67;;;18.90;99.90;;;;;;5857117;23;20894;-67
2021/06/06 05:57:56;;;;;;;49.37;38.37;;;18.80;99.90;;;;;;5853467;23;21085;-67
2021/06/06 06:00:27;;;;;;;46.50;34.90;;;18.90;99.90;;;;;;5863487;23;20167;-67
2021/06/06 06:02:53;;;;;;;44.20;34.93;;;19.00;99.90;;;;;;5872376;23;20533;-67
2021/06/06 06:05:20;;;;;;;43.00;35.60;;;19.10;99.90;;;;;;5864637;23;20694;-68
2021/06/06 06:07:46;;;;;;;44.20;35.70;;;19.10;99.90;;;;;;5899732;23;20605;-66
2021/06/06 06:10:14;;;;;;;42.33;36.13;;;18.80;99.90;;;;;;5861801;23;21128;-67
2021/06/06 06:12:40;;;;;;;42.17;34.83;;;18.50;99.90;;;;;;5862764;23;21236;-67
2021/06/06 06:15:07;;;;;;;42.90;34.10;;;18.40;99.90;;;;;;5900724;23;20843;-66
2021/06/06 06:17:33;;;;;;;50.43;37.60;;;18.40;99.90;;;;;;5861766;23;20243;-66
2021/06/06 06:20:00;;;;;;;44.13;32.80;;;18.30;99.90;;;;;;5902343;23;20978;-67
2021/06/06 06:22:25;;;;;;;45.70;34.13;;;18.20;99.90;;;;;;5874613;23;20396;-67
2021/06/06 06:24:51;;;;;;;49.63;36.07;;;17.90;99.90;;;;;;5899263;23;20398;-67
2021/06/06 06:27:17;;;;;;;46.93;35.83;;;17.80;99.90;;;;;;5864397;23;20251;-64
2021/06/06 06:29:43;;;;;;;45.60;34.33;;;18.10;99.90;;;;;;5856899;23;20168;-64
2021/06/06 06:32:09;;;;;;;41.73;32.67;;;18.10;99.90;;;;;;5895499;23;20423;-64
2021/06/06 06:34:34;;;;;;;43.50;32.23;;;18.00;99.90;;;;;;5857241;23;21019;-64
2021/06/06 06:37:00;;;;;;;40.80;32.50;;;17.90;99.90;;;;;;5884963;23;20171;-64
2021/06/06 06:39:26;;;;;;;44.70;34.70;;;17.70;99.90;;;;;;5837384;23;20558;-65
2021/06/06 06:41:52;;;;;;;44.37;33.87;;;17.80;99.90;;;;;;5849537;23;20157;-65
2021/06/06 06:44:17;;;;;;;43.50;33.40;;;17.90;99.90;;;;;;5857596;23;20290;-65
2021/06/06 06:46:43;;;;;;;42.57;32.30;;;17.70;99.90;;;;;;5906900;23;21291;-65
2021/06/06 06:49:11;;;;;;;44.27;34.87;;;18.10;99.90;;;;;;5868416;23;20646;-65
2021/06/06 06:51:37;;;;;;;44.07;32.70;;;18.40;99.90;;;;;;5917311;23;20720;-65
2021/06/06 06:54:03;;;;;;;41.90;32.07;;;18.20;99.90;;;;;;5881065;23;20385;-64
2021/06/06 06:56:29;;;;;;;46.40;32.03;;;18.00;99.90;;;;;;5890316;23;20200;-65
2021/06/06 06:58:58;;;;;;;39.93;29.87;;;18.10;99.90;;;;;;5886790;23;20380;-65
2021/06/06 07:01:24;;;;;;;43.87;29.80;;;18.10;99.90;;;;;;5868299;23;20829;-65
2021/06/06 07:03:51;;;;;;;40.00;30.30;;;18.00;99.90;;;;;;5906049;23;20852;-65
2021/06/06 07:06:17;;;;;;;42.50;32.60;;;18.20;99.90;;;;;;5856694;23;20406;-65
2021/06/06 07:08:44;;;;;;;38.67;29.67;;;18.20;99.90;;;;;;5854306;23;20422;-65
2021/06/06 07:11:12;;;;;;;41.07;31.23;;;18.20;99.90;;;;;;5847077;23;20443;-64
2021/06/06 07:13:39;;;;;;;41.17;32.10;;;18.10;99.90;;;;;;5870808;23;20611;-64
2021/06/06 07:16:07;;;;;;;34.20;28.30;;;18.30;99.90;;;;;;5855218;23;21024;-64
2021/06/06 07:18:33;;;;;;;40.10;32.00;;;18.40;99.90;;;;;;5887370;23;21106;-64
2021/06/06 07:21:06;;;;;;;39.80;30.60;;;18.80;99.90;;;;;;5838096;23;20809;-65
2021/06/06 07:23:33;;;;;;;40.03;30.20;;;18.90;99.90;;;;;;5843267;23;20388;-66
2021/06/06 07:26:02;;;;;;;41.40;30.87;;;18.60;99.90;;;;;;5844103;23;20901;-65
2021/06/06 07:28:29;;;;;;;42.07;30.37;;;18.60;99.90;;;;;;5847287;23;20388;-65
2021/06/06 07:30:58;;;;;;;39.23;30.90;;;18.30;99.90;;;;;;5846074;23;20878;-64
2021/06/06 07:33:29;;;;;;;42.67;30.10;;;18.20;99.90;;;;;;5829129;23;20392;-64
2021/06/06 07:35:56;;;;;;;38.77;30.93;;;18.20;99.90;;;;;;5832034;23;20856;-64
2021/06/06 07:38:23;;;;;;;43.17;31.37;;;18.10;99.90;;;;;;5828339;23;20407;-64
2021/06/06 07:40:50;;;;;;;46.80;32.03;;;18.10;99.90;;;;;;5839012;23;20813;-64
2021/06/06 07:43:17;;;;;;;42.23;30.90;;;18.20;99.90;;;;;;5870852;23;20388;-64
2021/06/06 07:45:43;;;;;;;42.87;31.10;;;18.10;99.90;;;;;;5828334;23;20441;-63
2021/06/06 07:48:09;;;;;;;39.63;29.93;;;18.00;99.90;;;;;;5826294;23;20403;-65
2021/06/06 07:50:39;;;;;;;42.33;30.23;;;17.90;99.90;;;;;;5835488;23;20479;-65
2021/06/06 07:53:05;;;;;;;39.50;29.03;;;18.30;99.90;;;;;;5833973;23;20747;-65
2021/06/06 07:55:32;;;;;;;43.40;32.87;;;18.70;99.90;;;;;;5885206;23;20777;-64
2021/06/06 07:57:58;;;;;;;39.23;29.43;;;18.90;99.90;;;;;;5888048;23;21195;-64
2021/06/06 08:00:32;;;;;;;39.77;30.00;;;19.20;99.90;;;;;;5843154;23;20396;-69
2021/06/06 08:02:58;;;;;;;44.23;30.03;;;19.50;99.90;;;;;;5889370;23;20148;-66
2021/06/06 08:05:24;;;;;;;43.33;31.70;;;19.20;99.90;;;;;;5846730;23;20396;-66
2021/06/06 08:07:51;;;;;;;43.20;30.77;;;19.40;99.90;;;;;;5853598;23;20160;-67
2021/06/06 08:10:20;;;;;;;42.33;29.60;;;19.10;99.90;;;;;;5859704;23;20563;-67
2021/06/06 08:12:45;;;;;;;43.13;31.73;;;18.80;99.90;;;;;;5852278;23;21291;-66
2021/06/06 08:15:12;;;;;;;39.00;30.67;;;18.90;99.90;;;;;;5837385;23;20407;-68
2021/06/06 08:17:39;;;;;;;42.70;31.67;;;18.80;99.90;;;;;;5845381;23;20156;-68
2021/06/06 08:20:09;;;;;;;38.70;29.40;;;19.00;99.90;;;;;;5847805;23;21230;-65
2021/06/06 08:22:36;;;;;;;44.17;30.13;;;19.20;99.90;;;;;;5852830;23;20407;-65
2021/06/06 08:25:07;;;;;;;42.57;30.77;;;19.10;99.90;;;;;;5851831;23;20765;-69
2021/06/06 08:27:34;;;;;;;39.70;29.80;;;19.30;99.90;;;;;;5869467;23;20364;-70
2021/06/06 08:30:00;;;;;;;41.13;30.27;;;19.50;99.90;;;;;;5832539;23;20402;-68
2021/06/06 08:32:26;;;;;;;41.63;29.87;;;19.70;99.90;;;;;;5850940;23;20818;-69
2021/06/06 08:34:52;;;;;;;40.87;30.13;;;19.70;99.90;;;;;;5897308;23;20924;-70
2021/06/06 08:37:18;;;;;;;39.97;29.20;;;19.60;99.90;;;;;;5894101;23;20815;-70
2021/06/06 08:39:44;;;;;;;36.97;27.80;;;19.10;99.90;;;;;;5856712;23;20641;-71
2021/06/06 08:42:26;;;;;;;37.77;27.17;;;19.10;99.90;;;;;;5894925;23;21189;-73
2021/06/06 08:45:22;;;;;;;39.47;28.70;;;19.50;99.90;;;;;;5890749;23;20536;-72
2021/06/06 08:47:49;;;;;;;36.37;26.60;;;19.80;99.90;;;;;;5839696;23;20392;-71
2021/06/06 08:50:21;;;;;;;35.90;26.37;;;19.80;99.90;;;;;;5835020;23;20789;-69
2021/06/06 08:53:03;;;;;;;37.60;26.83;;;19.90;99.90;;;;;;5855726;23;20451;-69
2021/06/06 08:55:58;;;;;;;43.30;29.13;;;19.90;99.90;;;;;;5842532;23;20739;-70
2021/06/06 08:58:49;;;;;;;44.77;30.07;;;20.30;99.90;;;;;;5846459;23;20416;-67
2021/06/06 09:01:42;;;;;;;42.87;29.60;;;20.20;99.90;;;;;;5889615;23;21040;-68
2021/06/06 09:04:27;;;;;;;40.20;28.90;;;20.20;99.90;;;;;;5882836;23;20773;-68
2021/06/06 09:07:02;;;;;;;43.83;29.40;;;20.60;99.90;;;;;;5838645;23;20949;-68
2021/06/06 09:09:36;;;;;;;45.23;31.20;;;20.60;99.90;;;;;;6026208;23;20598;-67
2021/06/06 09:12:18;;;;;;;42.87;29.50;;;20.50;99.90;;;;;;6041885;23;21160;-66
2021/06/06 09:14:48;;;;;;;43.67;29.77;;;20.50;99.90;;;;;;6008522;23;20388;-68
2021/06/06 09:17:20;;;;;;;41.20;27.37;;;20.60;99.90;;;;;;6000584;23;20937;-66
2021/06/06 09:19:57;;;;;;;43.60;28.20;;;20.10;99.90;;;;;;5956673;23;21194;-67
2021/06/06 09:22:40;;;;;;;37.80;27.63;;;20.00;99.90;;;;;;6026043;23;20375;-65
2021/06/06 09:25:16;;;;;;;36.07;26.90;;;20.30;99.90;;;;;;5983326;23;20619;-70
2021/06/06 09:27:45;;;;;;;39.60;27.97;;;20.70;99.90;;;;;;5999076;23;21258;-70
2021/06/06 09:30:23;;;;;;;40.10;26.30;;;20.90;52.00;;;;;;6017297;23;20715;-69
2021/06/06 09:32:51;;;;;;;35.37;25.40;;;21.10;51.00;;;;;;6039585;23;20830;-68
2021/06/06 09:35:41;;;;;;;35.27;26.60;;;20.90;90.60;;;;;;6003950;23;20977;-69
2021/06/06 09:38:25;;;;;;;34.90;26.30;;;21.10;55.00;;;;;;5977524;23;20575;-66
2021/06/06 09:40:53;;;;;;;32.90;25.90;;;21.50;1.00;;;;;;6012952;23;20911;-66
2021/06/06 09:43:33;;;;;;;32.80;25.20;;;21.40;1.00;;;;;;6017685;23;20906;-67
2021/06/06 09:46:19;;;;;;;33.07;25.77;;;21.50;1.00;;;;;;5985431;23;20736;-67
2021/06/06 09:48:49;;;;;;;31.77;25.40;;;21.70;1.00;;;;;;5909579;23;20896;-67
2021/06/06 09:51:23;;;;;;;30.07;23.80;;;21.60;1.00;;;;;;5886747;23;20786;-65
2021/06/06 09:53:50;;;;;;;30.50;23.83;;;21.50;1.00;;;;;;5888289;23;20781;-67
2021/06/06 09:56:25;;;;;;;29.60;23.80;;;21.60;1.00;;;;;;5882268;23;20858;-68
2021/06/06 09:58:51;;;;;;;32.03;24.33;;;21.30;1.00;;;;;;5882145;23;20822;-67
2021/06/06 10:01:29;;;;;;;31.13;24.30;;;21.20;1.00;;;;;;5839484;23;20740;-66
2021/06/06 10:04:00;;;;;;;30.00;22.60;;;21.20;1.00;;;;;;5864194;23;20438;-65
2021/06/06 10:06:28;;;;;;;31.57;24.77;;;21.10;1.00;;;;;;5819978;23;20392;-69
2021/06/06 10:09:14;;;;;;;32.43;24.60;;;20.90;1.00;;;;;;5866712;23;21178;-65
2021/06/06 10:11:48;;;;;;;31.97;23.27;;;21.30;25.60;;;;;;5849223;23;20930;-66
2021/06/06 10:14:15;;;;;;;26.80;22.27;;;21.50;1.00;;;;;;5896593;23;20702;-66
2021/06/06 10:16:45;;;;;;;27.90;21.90;;;21.70;1.00;;;;;;5837059;23;20683;-64
2021/06/06 10:19:22;;;;;;;32.07;23.67;;;21.70;1.00;;;;;;5833168;23;20380;-64
2021/06/06 10:21:50;;;;;;;28.13;22.43;;;21.80;1.00;;;;;;5849120;23;20432;-64
2021/06/06 10:24:34;;;;;;;28.43;22.90;;;22.00;1.00;;;;;;5853550;23;20881;-64
2021/06/06 10:27:24;;;;;;;30.67;23.10;;;22.00;1.00;;;;;;5858419;23;21061;-64
2021/06/06 10:30:00;;;;;;;29.77;23.30;;;22.50;1.00;;;;;;5851838;23;20380;-64
2021/06/06 10:32:33;;;;;;;24.83;20.90;;;22.50;99.90;;;;;;5891125;23;20590;-64
2021/06/06 10:35:12;;;;;;;24.80;19.40;;;22.60;99.90;;;;;;5845544;23;21262;-65
2021/06/06 10:37:38;;;;;;;23.90;21.30;;;22.70;92.40;;;;;;5839690;23;21247;-63
2021/06/06 10:40:09;;;;;;;24.50;20.87;;;22.70;99.90;;;;;;5840023;23;20398;-66
2021/06/06 10:42:48;;;;;;;25.63;20.37;;;22.90;99.90;;;;;;5846412;23;20388;-66
2021/06/06 10:45:25;;;;;;;25.77;20.87;;;22.80;99.90;;;;;;5882455;23;20923;-67
2021/06/06 10:47:59;;;;;;;28.30;21.60;;;22.70;99.90;;;;;;5840535;23;20387;-67
2021/06/06 10:50:34;;;;;;;25.80;23.10;;;22.10;1.00;;;;;;5833380;23;20920;-65
2021/06/06 10:53:25;;;;;;;24.67;21.17;;;21.80;1.00;;;;;;5897739;23;21280;-66
2021/06/06 10:56:02;;;;;;;23.63;21.00;;;21.50;1.00;;;;;;5885537;23;20802;-65
2021/06/06 10:58:48;;;;;;;25.23;21.40;;;21.20;1.00;;;;;;5855947;23;20752;-66
2021/06/06 11:01:17;;;;;;;26.60;21.77;;;21.20;1.00;;;;;;5835537;23;20937;-66
2021/06/06 11:03:44;;;;;;;26.40;22.63;;;21.20;1.00;;;;;;5851180;23;20433;-65
2021/06/06 11:06:26;;;;;;;28.30;23.37;;;20.90;1.00;;;;;;5846543;23;20396;-65
2021/06/06 11:08:53;;;;;;;28.03;22.40;;;20.90;3.50;;;;;;5881306;23;20817;-64
2021/06/06 11:11:38;;;;;;;29.30;23.20;;;21.20;1.00;;;;;;5840623;23;20515;-69
2021/06/06 11:14:15;;;;;;;31.27;24.30;;;21.20;1.00;;;;;;5871608;23;20388;-68
2021/06/06 11:16:52;;;;;;;28.83;23.07;;;20.90;1.00;;;;;;5848541;23;20494;-68
2021/06/06 11:19:21;;;;;;;26.70;22.80;;;20.90;8.40;;;;;;5885224;23;20367;-68
2021/06/06 11:21:57;;;;;;;28.07;22.27;;;21.10;1.00;;;;;;5888206;23;20834;-67
2021/06/06 11:24:41;;;;;;;31.00;23.93;;;21.10;1.00;;;;;;5845885;23;20808;-66
2021/06/06 11:27:16;;;;;;;27.30;23.33;;;21.10;1.00;;;;;;5851217;23;20406;-66
2021/06/06 11:29:48;;;;;;;25.50;22.70;;;21.30;1.00;;;;;;5896341;23;20378;-67
2021/06/06 11:32:14;;;;;;;28.77;23.77;;;21.50;1.00;;;;;;5857900;23;20826;-70
2021/06/06 11:34:53;;;;;;;28.50;22.43;;;21.60;1.00;;;;;;5857552;23;20415;-67
2021/06/06 11:37:27;;;;;;;28.50;24.00;;;21.30;1.00;;;;;;5830962;23;20388;-67
2021/06/06 11:39:54;;;;;;;24.93;21.00;;;21.30;1.00;;;;;;5827468;23;20929;-68
2021/06/06 11:42:29;;;;;;;23.80;20.60;;;21.60;1.00;;;;;;5837467;23;20395;-66
2021/06/06 11:44:59;;;;;;;27.87;23.33;;;21.60;1.00;;;;;;5798677;23;20422;-68
2021/06/06 11:47:29;;;;;;;26.27;21.50;;;21.60;1.00;;;;;;5801899;23;20395;-67
2021/06/06 11:50:13;;;;;;;23.47;20.97;;;22.20;1.00;;;;;;5739755;23;21448;-69
2021/06/06 11:53:05;;;;;;;24.57;21.53;;;22.40;1.00;;;;;;5753755;23;20803;-65
2021/06/06 11:55:39;;;;;;;23.33;20.83;;;22.40;99.90;;;;;;5758508;23;20799;-66
2021/06/06 11:58:09;;;;;;;24.97;22.30;;;22.30;1.00;;;;;;5838120;23;20869;-67
2021/06/06 12:00:37;;;;;;;24.70;21.57;;;22.40;99.90;;;;;;5836662;23;20744;-66
2021/06/06 12:03:32;;;;;;;26.43;23.63;;;22.20;99.90;;;;;;5830111;23;20917;-66
2021/06/06 12:06:08;;;;;;;29.60;23.20;;;22.50;99.90;;;;;;5758756;23;20388;-62
2021/06/06 12:08:42;;;;;;;24.67;21.53;;;22.30;99.90;;;;;;5766736;23;21237;-62
2021/06/06 12:11:22;;;;;;;24.90;22.40;;;22.30;99.90;;;;;;5773718;23;21019;-65
2021/06/06 12:13:50;;;;;;;26.83;23.90;;;22.10;1.00;;;;;;5840845;23;21427;-64
2021/06/06 12:16:23;;;;;;;26.80;24.00;;;22.00;1.00;;;;;;5784200;23;20947;-65
2021/06/06 12:19:08;;;;;;;25.83;22.70;;;22.20;1.00;;;;;;5823789;23;20434;-64
2021/06/06 12:21:38;;;;;;;25.90;22.67;;;21.80;1.00;;;;;;5837515;23;20886;-64
2021/06/06 12:24:26;;;;;;;25.60;23.00;;;21.70;1.00;;;;;;5790579;23;20395;-66
2021/06/06 12:27:01;;;;;;;25.60;22.53;;;21.70;1.00;;;;;;5748280;23;20479;-64
2021/06/06 12:29:33;;;;;;;27.23;23.87;;;21.40;1.00;;;;;;5718507;23;20897;-65
2021/06/06 12:32:14;;;;;;;25.33;21.83;;;21.00;1.00;;;;;;5822446;23;20858;-66
2021/06/06 12:34:41;;;;;;;25.40;22.00;;;21.00;1.00;;;;;;5770150;23;20755;-65
2021/06/06 12:37:20;;;;;;;25.33;22.00;;;21.20;1.00;;;;;;5746084;23;20953;-62
2021/06/06 12:39:49;;;;;;;24.37;21.73;;;21.40;1.00;;;;;;5748943;23;20406;-65
2021/06/06 12:42:15;;;;;;;25.50;22.77;;;21.60;1.00;;;;;;5792122;23;21265;-66
2021/06/06 12:44:49;;;;;;;24.83;22.13;;;22.00;1.00;;;;;;5765047;23;20477;-64
2021/06/06 12:47:34;;;;;;;23.63;20.50;;;22.30;1.00;;;;;;5742654;23;20724;-63